createdAt,value
2023-05-02T00:01:16.615Z,9.25
2023-05-02T00:03:47.823Z,8.50
2023-05-02T00:06:18.411Z,9.25
2023-05-02T00:08:50.027Z,8.50
2023-05-02T00:11:20.523Z,9.25
2023-05-02T00:13:51.064Z,11.00
2023-05-02T00:16:21.486Z,10.50
2023-05-02T00:18:53.394Z,10.00
2023-05-02T00:21:23.820Z,10.00
2023-05-02T00:23:54.260Z,8.50
2023-05-02T00:26:25.034Z,10.00
2023-05-02T00:28:55.652Z,9.50
2023-05-02T00:31:26.188Z,9.75
2023-05-02T00:33:57.189Z,8.00
2023-05-02T00:36:27.519Z,10.00
2023-05-02T00:38:58.186Z,8.00
2023-05-02T00:41:28.614Z,9.25
2023-05-02T00:43:59.219Z,9.75
2023-05-02T00:46:30.049Z,11.75
2023-05-02T00:49:01.736Z,8.50
2023-05-02T00:51:33.706Z,10.50
2023-05-02T00:54:06.009Z,11.75
2023-05-02T00:56:37.429Z,10.50
2023-05-02T00:59:28.480Z,9.25
2023-05-02T01:02:18.150Z,8.00
2023-05-02T01:05:19.110Z,8.75
2023-05-02T01:07:56.088Z,10.50
2023-05-02T01:10:50.602Z,6.00
2023-05-02T01:13:30.318Z,7.50
2023-05-02T01:16:03.420Z,9.50
2023-05-02T01:18:37.337Z,9.75
2023-05-02T01:21:12.311Z,8.25
2023-05-02T01:24:13.564Z,13.50
2023-05-02T01:27:15.660Z,3.75
2023-05-02T01:29:47.944Z,11.00
2023-05-02T01:32:21.698Z,8.25
2023-05-02T01:34:54.429Z,10.50
2023-05-02T01:37:27.148Z,8.00
2023-05-02T01:39:59.522Z,8.50
2023-05-02T01:42:33.376Z,11.00
2023-05-02T01:45:06.624Z,12.00
2023-05-02T01:47:40.145Z,2.00
2023-05-02T01:50:13.053Z,11.50
2023-05-02T01:52:45.970Z,12.50
2023-05-02T01:55:17.962Z,13.75
2023-05-02T01:57:50.995Z,10.00
2023-05-02T02:00:25.890Z,10.75
2023-05-02T02:02:57.655Z,14.00
2023-05-02T02:05:29.068Z,10.00
2023-05-02T02:08:00.346Z,12.50
2023-05-02T02:10:33.683Z,14.00
2023-05-02T02:13:09.793Z,11.50
2023-05-02T02:15:42.090Z,12.00
2023-05-02T02:18:15.440Z,10.25
2023-05-02T02:20:47.371Z,12.50
2023-05-02T02:23:21.307Z,10.00
2023-05-02T02:25:59.885Z,9.00
2023-05-02T02:28:30.822Z,14.75
2023-05-02T02:31:02.040Z,12.00
2023-05-02T02:33:32.959Z,12.00
2023-05-02T02:36:15.293Z,10.00
2023-05-02T02:39:04.924Z,11.50
2023-05-02T02:41:43.889Z,15.75
2023-05-02T02:44:37.101Z,13.50
2023-05-02T02:47:12.417Z,18.25
2023-05-02T02:49:48.498Z,16.25
2023-05-02T02:52:39.872Z,11.75
2023-05-02T02:55:13.171Z,8.75
2023-05-02T02:58:01.245Z,16.50
2023-05-02T03:00:33.555Z,16.50
2023-05-02T03:03:05.341Z,13.25
2023-05-02T03:05:35.907Z,13.25
2023-05-02T03:08:06.346Z,13.50
2023-05-02T03:10:37.116Z,10.00
2023-05-02T03:13:07.599Z,12.00
2023-05-02T03:15:43.765Z,14.25
2023-05-02T03:18:14.254Z,10.50
2023-05-02T03:20:44.892Z,15.50
2023-05-02T03:23:15.274Z,10.50
2023-05-02T03:25:45.874Z,13.75
2023-05-02T03:28:16.424Z,10.50
2023-05-02T03:30:46.931Z,14.25
2023-05-02T03:33:17.427Z,15.25
2023-05-02T03:35:47.796Z,15.00
2023-05-02T03:38:18.377Z,13.50
2023-05-02T03:40:48.719Z,13.50
2023-05-02T03:43:19.160Z,14.75
2023-05-02T03:45:51.149Z,14.00
2023-05-02T03:48:21.709Z,12.00
2023-05-02T03:50:52.055Z,10.00
2023-05-02T03:53:23.606Z,14.75
2023-05-02T03:55:56.012Z,15.50
2023-05-02T03:58:29.120Z,12.50
2023-05-02T04:01:00.766Z,13.50
2023-05-02T04:03:31.309Z,13.00
2023-05-02T04:06:28.369Z,13.50
2023-05-02T04:09:04.938Z,13.25
2023-05-02T04:11:38.263Z,13.75
2023-05-02T04:14:08.815Z,10.75
2023-05-02T04:16:39.184Z,13.25
2023-05-02T04:19:09.574Z,12.25
2023-05-02T04:21:39.956Z,9.25
2023-05-02T04:27:10.321Z,16.75
2023-05-02T04:29:40.764Z,16.00
2023-05-02T04:32:11.220Z,11.50
2023-05-02T04:34:42.270Z,6.25
2023-05-02T04:37:14.314Z,13.50
2023-05-02T04:39:44.899Z,11.25
2023-05-02T04:42:17.150Z,10.75
2023-05-02T04:44:48.906Z,12.75
2023-05-02T04:47:19.405Z,12.25
2023-05-02T04:49:49.705Z,10.75
2023-05-02T04:52:20.465Z,10.50
2023-05-02T04:54:50.805Z,9.00
2023-05-02T04:57:23.196Z,11.00
2023-05-02T04:59:53.486Z,13.00
2023-05-02T05:02:27.265Z,9.00
2023-05-02T05:04:58.141Z,10.00
2023-05-02T05:07:30.088Z,11.00
2023-05-02T05:10:01.197Z,9.50
2023-05-02T05:12:32.359Z,11.50
2023-05-02T05:15:03.189Z,6.75
2023-05-02T05:17:34.186Z,8.00
2023-05-02T05:20:08.949Z,9.75
2023-05-02T05:22:43.178Z,6.75
2023-05-02T05:25:13.649Z,7.50
2023-05-02T05:27:44.320Z,8.50
2023-05-02T05:30:17.359Z,6.00
2023-05-02T05:32:49.384Z,5.75
2023-05-02T05:35:19.845Z,6.00
2023-05-02T05:37:50.292Z,4.75
2023-05-02T05:40:20.979Z,4.50
2023-05-02T05:42:51.727Z,5.25
2023-05-02T05:45:22.188Z,4.25
2023-05-02T05:47:55.572Z,5.25
2023-05-02T05:50:29.930Z,7.25
2023-05-02T05:53:01.892Z,7.00
2023-05-02T05:55:35.913Z,3.75
2023-05-02T05:58:04.940Z,4.80
2023-05-02T06:00:36.854Z,4.60
2023-05-02T06:03:13.445Z,4.00
2023-05-02T06:05:50.161Z,6.00
2023-05-02T06:08:24.812Z,5.80
2023-05-02T06:11:00.988Z,5.00
2023-05-02T06:13:43.030Z,4.00
2023-05-02T06:19:24.192Z,3.80
2023-05-02T06:22:16.326Z,3.60
2023-05-02T06:27:47.297Z,5.60
2023-05-02T06:30:20.451Z,1.20
2023-05-02T06:32:52.968Z,2.20
2023-05-02T06:35:27.289Z,2.00
2023-05-02T06:38:03.631Z,1.00
2023-05-02T06:43:23.222Z,3.80
2023-05-02T06:45:54.926Z,4.40
2023-05-02T06:48:33.333Z,2.20
2023-05-02T06:51:03.824Z,2.20
2023-05-02T06:53:42.621Z,1.60
2023-05-02T06:56:19.370Z,1.20
2023-05-02T06:59:08.976Z,0.80
2023-05-02T07:01:47.873Z,1.00
2023-05-02T07:04:14.611Z,1.00
2023-05-02T07:06:47.119Z,1.00
2023-05-02T07:09:19.407Z,2.00
2023-05-02T07:11:50.559Z,1.00
2023-05-02T07:35:09.993Z,2.80
2023-05-02T07:37:40.443Z,2.80
2023-05-02T07:40:13.838Z,3.00
2023-05-02T07:42:46.853Z,1.00
2023-05-02T07:45:29.129Z,1.20
2023-05-02T07:48:19.618Z,2.00
2023-05-02T07:50:34.003Z,0.00
2023-05-02T07:53:04.479Z,2.00
2023-05-02T07:55:39.018Z,1.00
2023-05-02T07:58:09.230Z,2.00
2023-05-02T08:00:42.514Z,1.00
2023-05-02T08:20:01.110Z,3.80
2023-05-02T08:22:37.662Z,2.60
2023-05-02T08:25:07.516Z,2.80
2023-05-02T08:27:38.302Z,0.80
2023-05-02T08:30:11.234Z,2.00
2023-05-02T08:32:42.229Z,2.40
2023-05-02T08:35:29.886Z,4.00
2023-05-02T08:38:00.342Z,1.20
2023-05-02T08:40:41.596Z,3.60
2023-05-02T08:43:06.158Z,2.00
2023-05-02T08:45:38.560Z,4.40
2023-05-02T08:48:11.310Z,1.40
2023-05-02T08:50:44.101Z,2.00
2023-05-02T08:53:17.291Z,2.60
2023-05-02T08:56:14.306Z,3.00
2023-05-02T09:02:21.155Z,2.00
2023-05-02T09:04:59.636Z,1.60
2023-05-02T09:07:30.090Z,1.00
2023-05-02T09:10:02.429Z,3.20
2023-05-02T09:12:33.085Z,2.20
2023-05-02T09:18:01.996Z,2.60
2023-05-02T09:20:40.757Z,2.60
2023-05-02T09:23:09.666Z,3.00
2023-05-02T09:25:40.090Z,0.00
2023-05-02T09:28:13.590Z,1.80
2023-05-02T09:30:45.368Z,2.00
2023-05-02T09:33:21.915Z,3.00
2023-05-02T09:35:55.312Z,2.20
2023-05-02T09:38:25.522Z,4.00
2023-05-02T09:40:56.191Z,1.40
2023-05-02T09:43:28.239Z,2.00
2023-05-02T09:46:00.509Z,2.00
2023-05-02T09:48:31.890Z,2.80
2023-05-02T09:51:02.330Z,2.40
2023-05-02T09:53:33.115Z,1.20
2023-05-02T09:56:06.170Z,1.20
2023-05-02T09:58:38.163Z,4.60
2023-05-02T10:01:09.867Z,1.00
2023-05-02T10:03:42.249Z,2.00
2023-05-02T10:06:19.065Z,0.80
2023-05-02T10:08:54.385Z,1.80
2023-05-02T10:11:25.610Z,2.00
2023-05-02T10:13:57.842Z,2.80
2023-05-02T10:16:43.044Z,1.00
2023-05-02T10:19:19.659Z,1.00
2023-05-02T10:21:50.934Z,3.80
2023-05-02T10:24:23.712Z,4.20
2023-05-02T10:27:27.251Z,1.60
2023-05-02T10:29:34.400Z,2.20
2023-05-02T10:32:13.120Z,1.80
2023-05-02T10:34:46.114Z,2.40
2023-05-02T10:37:45.765Z,1.40
2023-05-02T10:40:18.859Z,3.00
2023-05-02T10:42:51.056Z,1.60
2023-05-02T10:46:04.971Z,2.60
2023-05-02T10:48:27.918Z,1.00
2023-05-02T10:51:06.086Z,2.60
2023-05-02T10:53:42.678Z,1.40
2023-05-02T10:57:07.825Z,2.80
2023-05-02T10:59:36.590Z,2.00
2023-05-02T11:02:23.742Z,1.00
2023-05-02T11:05:07.388Z,2.00
2023-05-02T11:07:42.637Z,2.20
2023-05-02T11:23:34.289Z,3.00
2023-05-02T11:26:10.668Z,3.20
2023-05-02T11:28:53.043Z,3.80
2023-05-02T11:31:39.414Z,2.40
2023-05-02T11:34:22.460Z,4.00
2023-05-02T11:37:00.348Z,3.40
2023-05-02T11:39:34.738Z,2.60
2023-05-02T11:42:05.325Z,2.00
2023-05-02T11:48:16.771Z,1.00
2023-05-02T11:50:51.775Z,2.60
2023-05-02T11:53:33.362Z,2.00
2023-05-02T11:56:05.835Z,3.00
2023-05-02T11:58:43.718Z,2.00
2023-05-02T12:01:16.039Z,3.40
2023-05-02T12:03:49.138Z,2.80
2023-05-02T12:06:21.993Z,2.00
2023-05-02T12:08:53.878Z,4.00
2023-05-02T12:11:24.867Z,3.80
2023-05-02T12:13:55.664Z,4.60
2023-05-02T12:16:26.106Z,2.40
2023-05-02T12:18:58.610Z,3.60
2023-05-02T12:21:35.187Z,3.00
2023-05-02T12:24:07.550Z,4.20
2023-05-02T12:26:37.540Z,5.00
2023-05-02T12:29:09.808Z,4.40
2023-05-02T12:34:36.451Z,1.80
2023-05-02T12:37:08.836Z,3.00
2023-05-02T12:39:42.915Z,2.00
2023-05-02T12:45:20.262Z,2.00
2023-05-02T12:47:55.737Z,3.00
2023-05-02T12:50:37.294Z,2.00
2023-05-02T12:53:10.408Z,2.80
2023-05-02T12:55:40.703Z,4.20
2023-05-02T12:58:12.787Z,3.40
2023-05-02T13:00:45.552Z,3.00
2023-05-02T13:03:16.498Z,3.60
2023-05-02T13:05:50.107Z,3.00
2023-05-02T13:08:29.229Z,2.40
2023-05-02T13:10:59.186Z,2.80
2023-05-02T13:13:30.714Z,3.40
2023-05-02T13:16:01.094Z,3.20
2023-05-02T13:18:34.960Z,2.60
2023-05-02T13:21:09.312Z,3.60
2023-05-02T13:23:39.719Z,3.00
2023-05-02T13:26:26.734Z,3.00
2023-05-02T13:36:02.308Z,3.00
2023-05-02T13:38:31.819Z,3.00
2023-05-02T13:47:15.081Z,2.00
2023-05-02T13:49:56.466Z,2.60
2023-05-02T13:52:25.530Z,1.80
2023-05-02T13:54:59.337Z,1.20
2023-05-02T13:57:32.798Z,2.60
2023-05-02T14:00:11.164Z,1.60
2023-05-02T14:02:41.395Z,1.60
2023-05-02T14:05:23.649Z,2.60
2023-05-02T14:07:54.229Z,4.40
2023-05-02T14:10:27.149Z,1.80
2023-05-02T14:13:00.687Z,3.00
2023-05-02T14:15:31.058Z,2.20
2023-05-02T14:18:01.494Z,2.00
2023-05-02T14:20:35.060Z,2.00
2023-05-02T14:23:07.422Z,2.00
2023-05-02T14:25:38.115Z,2.40
2023-05-02T14:28:09.933Z,1.80
2023-05-02T14:30:47.906Z,3.00
2023-05-02T14:33:18.374Z,1.80
2023-05-02T14:35:49.593Z,2.00
2023-05-02T14:38:20.174Z,2.00
2023-05-02T14:40:50.681Z,0.80
2023-05-02T14:43:22.771Z,1.40
2023-05-02T14:45:53.180Z,1.80
2023-05-02T14:48:28.590Z,1.00
2023-05-02T14:50:59.357Z,4.00
2023-05-02T14:53:30.054Z,2.20
2023-05-02T14:56:01.057Z,3.00
2023-05-02T14:58:34.525Z,3.60
2023-05-02T15:01:10.666Z,1.20
2023-05-02T15:04:00.812Z,3.40
2023-05-02T15:06:14.082Z,3.20
2023-05-02T15:08:44.676Z,4.00
2023-05-02T15:11:15.105Z,0.00
2023-05-02T15:13:48.211Z,1.50
2023-05-02T15:16:18.681Z,2.00
2023-05-02T15:18:49.107Z,2.60
2023-05-02T15:21:19.554Z,2.40
2023-05-02T15:23:50.020Z,2.60
2023-05-02T15:26:22.149Z,1.40
2023-05-02T15:28:52.550Z,2.20
2023-05-02T15:31:25.924Z,3.60
2023-05-02T15:33:56.464Z,1.60
2023-05-02T15:36:30.682Z,5.20
2023-05-02T15:39:00.987Z,2.20
2023-05-02T15:41:37.322Z,1.20
2023-05-02T15:44:07.799Z,2.60
2023-05-02T15:46:41.269Z,1.60
2023-05-02T15:49:11.740Z,2.00
2023-05-02T15:51:43.476Z,2.00
2023-05-02T15:54:16.347Z,1.80
2023-05-02T15:56:48.196Z,1.20
2023-05-02T15:59:27.317Z,2.60
2023-05-02T16:02:01.315Z,1.20
2023-05-02T16:04:33.362Z,3.40
2023-05-02T16:07:12.262Z,2.80
2023-05-02T16:09:44.353Z,2.20
2023-05-02T16:12:21.531Z,3.80
2023-05-02T16:14:57.231Z,3.00
2023-05-02T16:17:29.132Z,3.40
2023-05-02T16:19:59.816Z,16.60
2023-05-02T16:22:31.050Z,3.60
2023-05-02T16:25:04.666Z,4.00
2023-05-02T16:50:27.453Z,2.60
2023-05-02T16:53:02.244Z,3.00
2023-05-02T16:55:34.220Z,5.00
2023-05-02T16:58:05.337Z,4.60
2023-05-02T17:00:36.667Z,5.80
2023-05-02T17:03:07.952Z,6.80
2023-05-02T17:05:38.742Z,3.80
2023-05-02T17:08:11.120Z,4.80
2023-05-02T17:10:43.428Z,7.80
2023-05-02T17:13:39.102Z,5.80
2023-05-02T17:16:02.065Z,8.60
2023-05-02T17:18:35.957Z,10.40
2023-05-02T17:21:06.739Z,4.60
2023-05-02T17:26:24.678Z,6.20
2023-05-02T17:28:57.747Z,5.20
2023-05-02T17:34:37.573Z,5.00
2023-05-02T17:37:11.167Z,5.00
2023-05-02T17:39:46.283Z,4.00
2023-05-02T17:42:28.144Z,11.25
2023-05-02T17:45:06.288Z,8.00
2023-05-02T17:47:41.620Z,5.00
2023-05-02T17:56:42.825Z,6.75
2023-05-02T17:59:16.851Z,3.40
2023-05-02T18:01:49.684Z,2.00
2023-05-02T18:04:22.993Z,7.80
2023-05-02T18:07:07.998Z,4.80
2023-05-02T18:12:24.877Z,4.00
2023-05-02T18:15:01.979Z,3.00
2023-05-02T18:17:36.027Z,5.00
2023-05-02T18:20:08.274Z,3.60
2023-05-02T18:22:42.995Z,3.00
2023-05-02T18:25:16.054Z,5.00
2023-05-02T18:27:47.273Z,6.00
2023-05-02T18:30:20.425Z,6.60
2023-05-02T18:32:54.786Z,8.00
2023-05-02T18:35:29.607Z,6.75
2023-05-02T18:38:04.572Z,4.25
2023-05-02T18:40:45.027Z,7.50
2023-05-02T18:43:18.609Z,7.75
2023-05-02T18:45:52.401Z,6.25
2023-05-02T18:48:25.836Z,9.75
2023-05-02T18:51:01.364Z,11.00
2023-05-02T18:53:36.514Z,11.75
2023-05-02T18:56:14.759Z,29.00
2023-05-02T18:59:04.350Z,11.75
2023-05-02T19:01:38.476Z,9.25
2023-05-02T19:04:18.389Z,11.75
2023-05-02T19:12:42.025Z,23.50
2023-05-02T19:15:17.757Z,20.25
2023-05-02T19:17:56.558Z,23.00
2023-05-02T19:20:31.273Z,25.00
2023-05-02T19:23:19.801Z,17.75
2023-05-02T19:26:20.686Z,19.25
2023-05-02T19:28:50.773Z,18.00
2023-05-02T19:31:25.803Z,18.00
2023-05-02T19:34:00.696Z,16.25
2023-05-02T19:46:10.292Z,14.00
2023-05-02T20:02:13.732Z,11.75
2023-05-02T20:11:36.820Z,8.25
2023-05-02T20:14:23.477Z,11.00
2023-05-02T20:17:02.290Z,11.00
2023-05-02T20:19:33.002Z,12.75
2023-05-02T20:22:06.196Z,9.50
2023-05-02T20:24:37.392Z,11.00
2023-05-02T20:30:15.715Z,16.50
2023-05-02T20:32:46.940Z,14.75
2023-05-02T20:35:19.001Z,15.00
2023-05-02T20:38:04.156Z,12.25
2023-05-02T20:40:34.697Z,12.00
2023-05-02T20:43:05.290Z,8.00
2023-05-02T20:45:37.245Z,14.00
2023-05-02T20:48:07.674Z,13.25
2023-05-02T20:50:55.382Z,7.25
2023-05-02T20:53:32.102Z,10.00
2023-05-02T20:59:35.007Z,9.50
2023-05-02T21:02:06.631Z,14.25
2023-05-02T21:04:55.605Z,11.50
2023-05-02T21:07:19.924Z,11.00
2023-05-02T21:09:50.476Z,5.50
2023-05-02T21:12:21.052Z,12.75
2023-05-02T21:14:54.796Z,10.75
2023-05-02T21:17:25.368Z,11.25
2023-05-02T21:19:58.637Z,13.00
2023-05-02T21:22:32.529Z,10.25
2023-05-02T21:25:17.946Z,13.75
2023-05-02T21:27:55.552Z,12.00
2023-05-02T21:30:29.388Z,10.50
2023-05-02T21:32:59.816Z,11.75
2023-05-02T21:35:30.170Z,15.50
2023-05-02T21:38:00.737Z,8.50
2023-05-02T21:40:31.510Z,9.75
2023-05-02T21:49:32.380Z,14.00
2023-05-02T21:52:03.047Z,17.00
2023-05-02T22:12:56.823Z,32.50
2023-05-02T22:15:27.510Z,26.00
2023-05-02T22:17:58.051Z,39.50
2023-05-02T22:20:28.580Z,38.25
2023-05-02T22:22:58.968Z,23.75
2023-05-02T22:25:29.339Z,41.75
2023-05-02T22:27:59.614Z,45.00
2023-05-02T22:30:30.177Z,38.50
2023-05-02T22:33:01.044Z,28.75
2023-05-02T22:35:32.315Z,42.75
2023-05-02T22:38:02.889Z,34.50
2023-05-02T22:40:33.756Z,31.25
2023-05-02T22:43:25.887Z,32.00
2023-05-02T22:45:57.303Z,30.25
2023-05-02T22:48:28.299Z,33.75
2023-05-02T22:50:58.868Z,27.00
2023-05-02T22:53:29.517Z,30.75
2023-05-02T22:56:00.022Z,27.50
2023-05-02T22:58:30.450Z,32.25
2023-05-02T23:01:01.713Z,35.00
2023-05-02T23:03:32.330Z,32.50
2023-05-02T23:06:02.866Z,31.75
2023-05-02T23:08:33.364Z,30.75
2023-05-02T23:11:05.745Z,34.25
2023-05-02T23:13:36.027Z,35.75
2023-05-02T23:16:06.879Z,29.75
2023-05-02T23:18:37.571Z,27.00
2023-05-02T23:21:28.779Z,25.25
2023-05-02T23:23:59.424Z,25.25
2023-05-02T23:26:29.806Z,24.25
2023-05-02T23:29:00.213Z,29.50
2023-05-02T23:31:30.704Z,23.00
2023-05-02T23:34:01.557Z,28.75
2023-05-02T23:36:32.741Z,25.75
2023-05-02T23:39:03.230Z,25.75
2023-05-02T23:41:35.113Z,25.00
2023-05-02T23:44:05.713Z,24.25
2023-05-02T23:46:36.141Z,21.50
2023-05-02T23:49:06.526Z,20.75
2023-05-02T23:51:38.394Z,24.75
2023-05-02T23:54:08.687Z,25.50
2023-05-02T23:56:39.484Z,20.00
2023-05-02T23:59:10.587Z,19.50
